Time;durP1;ratioP1;P1;durP2;ratioP2;P2;SDS_P1;SDS_P2;PMS_P1;PMS_P2;Temp;Humidity;BMP_temperature;BMP_pressure;BME280_temperature;BME280_humidity;BME280_pressure;Samples;Min_cycle;Max_cycle;Signal;HPM_P1;HPM_P2
2023/05/21 00:01:41;;;;;;;77.70;14.40;;;14.70;99.90;;;;;;4820895;29;20649;-80
2023/05/21 00:04:07;;;;;;;78.23;16.40;;;14.70;99.90;;;;;;4821968;29;20183;-81
2023/05/21 00:06:36;;;;;;;77.03;16.83;;;14.60;99.90;;;;;;4806905;29;20432;-81
2023/05/21 00:09:03;;;;;;;77.00;17.40;;;14.60;99.90;;;;;;4807242;29;20419;-81
2023/05/21 00:11:29;;;;;;;78.17;18.13;;;14.50;99.90;;;;;;4821122;29;20483;-81
2023/05/21 00:13:55;;;;;;;87.27;19.13;;;14.50;99.90;;;;;;4807244;29;20416;-80
2023/05/21 00:16:21;;;;;;;75.70;16.97;;;14.50;99.90;;;;;;4807919;29;20243;-81
2023/05/21 00:18:48;;;;;;;79.27;18.53;;;14.50;99.90;;;;;;4810471;29;20234;-81
2023/05/21 00:21:16;;;;;;;77.23;17.20;;;14.40;99.90;;;;;;4810659;29;20467;-81
2023/05/21 00:23:42;;;;;;;79.03;16.83;;;14.40;99.90;;;;;;4810555;29;20420;-81
2023/05/21 00:26:08;;;;;;;77.50;16.87;;;14.50;99.90;;;;;;4810037;29;20465;-81
2023/05/21 00:28:34;;;;;;;78.97;16.43;;;14.40;99.90;;;;;;4810354;29;20790;-81
2023/05/21 00:31:00;;;;;;;78.37;18.60;;;14.30;99.90;;;;;;4810305;29;20408;-81
2023/05/21 00:33:27;;;;;;;78.20;16.67;;;14.40;99.90;;;;;;4810168;29;20171;-81
2023/05/21 00:35:54;;;;;;;77.70;17.60;;;14.30;99.90;;;;;;4809931;29;20428;-81
2023/05/21 00:38:20;;;;;;;80.67;17.37;;;14.30;99.90;;;;;;4810047;29;20410;-81
2023/05/21 00:40:49;;;;;;;77.10;16.23;;;14.30;99.90;;;;;;4809916;29;20448;-81
2023/05/21 00:43:15;;;;;;;78.60;16.80;;;14.30;99.90;;;;;;4808567;29;20462;-81
2023/05/21 00:45:46;;;;;;;78.90;17.83;;;14.30;99.90;;;;;;4809784;29;20407;-80
2023/05/21 00:48:13;;;;;;;81.20;17.20;;;14.30;99.90;;;;;;4823875;29;20415;-81
2023/05/21 00:50:40;;;;;;;76.57;15.53;;;14.20;99.90;;;;;;4823881;29;20411;-81
2023/05/21 00:53:09;;;;;;;81.73;17.53;;;14.10;99.90;;;;;;4810044;29;20848;-81
2023/05/21 00:55:36;;;;;;;78.77;15.73;;;14.10;99.90;;;;;;4809681;29;20411;-80
2023/05/21 00:58:03;;;;;;;78.67;17.50;;;14.00;99.90;;;;;;4809812;29;20490;-81
2023/05/21 01:00:33;;;;;;;80.47;15.33;;;14.10;99.90;;;;;;4809603;29;20444;-81
2023/05/21 01:03:03;;;;;;;78.33;16.53;;;14.00;99.90;;;;;;4809401;29;20773;-81
2023/05/21 01:05:29;;;;;;;79.87;16.80;;;14.00;99.90;;;;;;4809755;29;20419;-81
2023/05/21 01:07:56;;;;;;;77.97;16.90;;;14.00;99.90;;;;;;4809308;29;21003;-81
2023/05/21 01:10:23;;;;;;;77.47;16.63;;;14.00;99.90;;;;;;4809563;29;20426;-80
2023/05/21 01:12:51;;;;;;;77.73;14.83;;;14.10;99.90;;;;;;4809370;29;20416;-81
2023/05/21 01:15:17;;;;;;;80.50;16.17;;;14.10;99.90;;;;;;4809386;29;20447;-81
2023/05/21 01:17:47;;;;;;;81.53;16.07;;;14.00;99.90;;;;;;4809763;29;20452;-80
2023/05/21 01:20:17;;;;;;;79.10;17.17;;;14.10;99.90;;;;;;4809085;29;20388;-81
2023/05/21 01:22:51;;;;;;;78.80;15.00;;;14.20;99.90;;;;;;4808010;29;20456;-81
2023/05/21 01:25:17;;;;;;;78.70;17.27;;;14.20;99.90;;;;;;4809214;29;20402;-80
2023/05/21 01:27:43;;;;;;;75.77;15.10;;;14.20;99.90;;;;;;4808660;29;20435;-81
2023/05/21 01:30:09;;;;;;;79.00;16.97;;;14.10;99.90;;;;;;4809754;29;21034;-80
2023/05/21 01:32:54;;;;;;;76.70;15.07;;;14.20;99.90;;;;;;4807893;29;20189;-80
2023/05/21 01:35:25;;;;;;;78.67;16.50;;;14.10;99.90;;;;;;4822817;29;20403;-81
2023/05/21 01:38:25;;;;;;;79.07;16.00;;;14.10;99.90;;;;;;4809571;29;20441;-81
2023/05/21 01:41:09;;;;;;;79.57;17.37;;;14.10;99.90;;;;;;4808963;29;20493;-81
2023/05/21 01:43:38;;;;;;;79.20;16.00;;;14.10;99.90;;;;;;4807440;29;20860;-81
2023/05/21 01:46:06;;;;;;;78.90;15.20;;;14.00;99.90;;;;;;4822466;29;20438;-81
2023/05/21 01:48:34;;;;;;;80.50;16.07;;;14.10;99.90;;;;;;4808871;29;20445;-80
2023/05/21 01:51:03;;;;;;;82.77;18.30;;;14.10;99.90;;;;;;4808777;29;20403;-81
2023/05/21 01:53:30;;;;;;;76.13;15.53;;;14.20;99.90;;;;;;4808839;29;20938;-81
2023/05/21 01:55:55;;;;;;;81.40;17.73;;;14.20;99.90;;;;;;4808759;29;20426;-81
2023/05/21 01:58:21;;;;;;;77.97;15.73;;;14.10;99.90;;;;;;4807281;29;20506;-81
2023/05/21 02:00:50;;;;;;;77.30;16.07;;;14.00;99.90;;;;;;4808444;29;20193;-81
2023/05/21 02:03:18;;;;;;;77.97;16.33;;;14.00;99.90;;;;;;4808645;29;20910;-81
2023/05/21 02:05:44;;;;;;;77.87;15.70;;;14.00;99.90;;;;;;4808417;29;20411;-81
2023/05/21 02:08:10;;;;;;;78.50;16.80;;;14.00;99.90;;;;;;4808680;29;20411;-81
2023/05/21 02:10:35;;;;;;;77.60;15.80;;;14.00;99.90;;;;;;4808647;29;20161;-81
2023/05/21 02:13:01;;;;;;;78.83;17.47;;;14.00;99.90;;;;;;4806890;29;20455;-81
2023/05/21 02:15:27;;;;;;;82.10;16.53;;;14.00;99.90;;;;;;4808032;29;20426;-81
2023/05/21 02:17:52;;;;;;;77.53;16.10;;;13.90;99.90;;;;;;4808598;29;20193;-81
2023/05/21 02:20:18;;;;;;;78.73;17.30;;;13.90;99.90;;;;;;4808168;29;20177;-81
2023/05/21 02:22:46;;;;;;;79.40;17.40;;;13.90;99.90;;;;;;4808323;29;20193;-81
2023/05/21 02:25:13;;;;;;;78.00;18.00;;;14.00;99.90;;;;;;4808569;29;20453;-81
2023/05/21 02:27:41;;;;;;;82.63;16.70;;;13.90;99.90;;;;;;4807961;29;20841;-81
2023/05/21 02:30:08;;;;;;;79.07;15.77;;;13.90;99.90;;;;;;4821816;29;20430;-81
2023/05/21 02:32:34;;;;;;;81.13;17.53;;;13.90;99.90;;;;;;4808219;29;20433;-81
2023/05/21 02:35:02;;;;;;;76.83;16.30;;;13.90;99.90;;;;;;4807866;29;20418;-81
2023/05/21 02:37:29;;;;;;;80.87;17.13;;;13.90;99.90;;;;;;4807964;29;20823;-81
2023/05/21 02:39:55;;;;;;;80.57;17.27;;;13.90;99.90;;;;;;4807902;29;20920;-81
2023/05/21 02:42:22;;;;;;;81.73;18.07;;;13.90;99.90;;;;;;4807649;29;20446;-81
2023/05/21 02:44:49;;;;;;;81.30;16.60;;;13.90;99.90;;;;;;4808195;29;20749;-81
2023/05/21 02:47:14;;;;;;;81.77;17.73;;;13.90;99.90;;;;;;4807935;29;20436;-81
2023/05/21 02:49:40;;;;;;;80.70;18.23;;;13.90;99.90;;;;;;4808134;29;20422;-81
2023/05/21 02:52:06;;;;;;;81.27;16.53;;;13.90;99.90;;;;;;4807659;29;20177;-81
2023/05/21 02:54:31;;;;;;;84.80;18.47;;;13.80;99.90;;;;;;4807592;29;20256;-81
2023/05/21 02:57:05;;;;;;;80.57;17.90;;;13.80;99.90;;;;;;4807506;29;20740;-81
2023/05/21 02:59:32;;;;;;;81.27;18.93;;;13.70;99.90;;;;;;4807940;29;20241;-81
2023/05/21 03:01:57;;;;;;;80.93;18.40;;;13.70;99.90;;;;;;4807759;29;20456;-81
2023/05/21 03:04:23;;;;;;;79.80;20.40;;;13.70;99.90;;;;;;4807533;29;20502;-81
2023/05/21 03:06:53;;;;;;;80.17;19.87;;;13.70;99.90;;;;;;4807386;29;20193;-81
2023/05/21 03:09:20;;;;;;;79.57;18.67;;;13.70;99.90;;;;;;4807473;29;20446;-81
2023/05/21 03:11:46;;;;;;;81.97;20.20;;;13.60;99.90;;;;;;4807589;29;20783;-81
2023/05/21 03:14:13;;;;;;;79.97;19.50;;;13.70;99.90;;;;;;4807388;29;20412;-81
2023/05/21 03:16:40;;;;;;;82.73;20.90;;;13.80;99.90;;;;;;4807375;29;20526;-81
2023/05/21 03:19:07;;;;;;;81.97;19.30;;;13.80;99.90;;;;;;4807458;29;20407;-81
2023/05/21 03:21:33;;;;;;;81.57;21.07;;;13.80;99.90;;;;;;4821850;29;20800;-81
2023/05/21 03:23:59;;;;;;;81.87;20.83;;;13.80;99.90;;;;;;4821246;29;20423;-81
2023/05/21 07:03:02;;;;;;;78.83;14.57;;;16.50;99.90;;;;;;3850605;27;20539;-87
2023/05/21 07:14:04;;;;;;;;;;;;;;;;;;;;;
2023/05/21 07:17:14;;;;;;;78.73;13.10;;;16.80;99.90;;;;;;4864036;29;20523;-87
2023/05/21 07:20:17;;;;;;;;;;;;;;;;;;;;;
2023/05/21 07:29:57;;;;;;;;;;;;;;;;;;;;;
2023/05/21 07:40:46;;;;;;;73.70;12.00;;;17.40;91.30;;;;;;4714934;30;20452;-87
2023/05/21 07:43:43;;;;;;;74.37;11.93;;;17.50;92.20;;;;;;4651535;30;20475;-88
2023/05/21 07:46:55;;;;;;;76.20;13.00;;;17.50;90.60;;;;;;4649902;30;20514;-87
2023/05/21 07:49:55;;;;;;;;;;;;;;;;;;;;;
2023/05/21 07:52:52;;;;;;;74.63;12.20;;;17.50;92.10;;;;;;4734986;30;20419;-87
2023/05/21 07:55:26;;;;;;;74.17;12.30;;;17.60;90.90;;;;;;4820076;29;20821;-87
2023/05/21 07:57:52;;;;;;;73.27;13.10;;;17.70;90.10;;;;;;4860662;29;20467;-87
2023/05/21 08:00:25;;;;;;;76.07;13.53;;;17.80;87.20;;;;;;4860266;29;20468;-87
2023/05/21 08:02:51;;;;;;;77.07;12.67;;;17.80;87.10;;;;;;4860927;29;20952;-87
2023/05/21 08:06:29;;;;;;;75.07;12.73;;;17.80;84.00;;;;;;4860397;29;20423;-87
2023/05/21 08:09:14;;;;;;;75.63;12.67;;;17.80;83.90;;;;;;4861222;29;20410;-87
2023/05/21 08:11:17;;;;;;;74.37;12.50;;;17.70;82.40;;;;;;4861775;29;20424;-86
2023/05/21 08:13:51;;;;;;;76.20;13.77;;;17.70;88.40;;;;;;4861641;29;20424;-87
2023/05/21 08:16:23;;;;;;;76.20;12.60;;;17.70;87.00;;;;;;4861959;29;20439;-87
2023/05/21 08:18:52;;;;;;;76.47;12.90;;;17.80;85.00;;;;;;4859657;29;20416;-87
2023/05/21 08:21:19;;;;;;;75.60;13.77;;;17.80;86.00;;;;;;4860750;29;20412;-87
2023/05/21 08:23:45;;;;;;;74.40;12.57;;;18.00;81.00;;;;;;4860337;29;20550;-87
2023/05/21 08:26:35;;;;;;;76.03;13.30;;;18.00;78.30;;;;;;4860509;29;20891;-87
2023/05/21 08:29:09;;;;;;;75.00;12.50;;;18.10;79.00;;;;;;4861101;29;20163;-87
2023/05/21 08:31:52;;;;;;;74.30;12.70;;;17.90;71.00;;;;;;4862292;29;20885;-87
2023/05/21 08:34:22;;;;;;;73.03;11.27;;;18.00;85.40;;;;;;4861717;29;20403;-87
2023/05/21 08:36:48;;;;;;;74.50;12.70;;;18.10;82.30;;;;;;4860275;29;20527;-87
2023/05/21 08:39:14;;;;;;;77.10;13.73;;;18.30;80.00;;;;;;4865526;29;20408;-88
2023/05/21 08:41:51;;;;;;;;;;;;;;;;;;;;;
2023/05/21 08:44:20;;;;;;;77.33;14.93;;;18.40;71.50;;;;;;4864280;29;20399;-87
2023/05/21 08:46:56;;;;;;;77.53;15.30;;;18.30;70.80;;;;;;4864732;29;20444;-87
2023/05/21 08:49:29;;;;;;;74.87;13.20;;;18.40;72.10;;;;;;4864680;29;20398;-87
2023/05/21 08:51:59;;;;;;;79.03;15.60;;;18.50;67.40;;;;;;4864308;29;20411;-87
2023/05/21 08:54:26;;;;;;;77.20;14.50;;;18.50;59.40;;;;;;4848514;29;20900;-87
2023/05/21 08:56:53;;;;;;;76.77;13.57;;;18.60;59.20;;;;;;4862636;29;20812;-88
2023/05/21 08:59:20;;;;;;;76.63;14.93;;;18.60;57.70;;;;;;4864693;29;20444;-87
2023/05/21 09:01:51;;;;;;;76.47;13.60;;;18.70;61.20;;;;;;4864143;29;20453;-87
2023/05/21 09:04:20;;;;;;;77.90;14.53;;;18.90;55.70;;;;;;4863447;29;20424;-87
2023/05/21 09:06:46;;;;;;;74.97;12.30;;;18.90;54.20;;;;;;4862714;29;20531;-87
2023/05/21 09:09:33;;;;;;;79.00;13.63;;;19.10;55.80;;;;;;4864081;29;20439;-87
2023/05/21 09:11:59;;;;;;;81.87;13.40;;;19.10;47.30;;;;;;4863486;29;20494;-87
2023/05/21 09:14:32;;;;;;;76.87;12.10;;;19.30;42.10;;;;;;4847085;29;20448;-87
2023/05/21 09:17:01;;;;;;;79.13;14.33;;;19.30;43.90;;;;;;4862447;29;20786;-87
2023/05/21 09:19:30;;;;;;;75.00;12.43;;;19.50;39.90;;;;;;4863717;29;20441;-87
2023/05/21 09:22:25;;;;;;;76.77;12.90;;;19.50;40.20;;;;;;4862912;29;20872;-87
2023/05/21 09:24:56;;;;;;;78.57;13.00;;;19.50;32.20;;;;;;4863839;29;20420;-87
2023/05/21 09:27:37;;;;;;;;;;;;;;;;;;;;;
2023/05/21 09:48:32;;;;;;;78.33;13.20;;;20.30;31.10;;;;;;5161199;23;20502;-87
2023/05/21 09:54:51;;;;;;;;;;;;;;;;;;;;;
2023/05/21 09:57:50;;;;;;;78.97;13.97;;;21.20;6.30;;;;;;4827999;29;20440;-86
2023/05/21 10:01:10;;;;;;;74.47;12.90;;;21.40;3.00;;;;;;4809297;29;20428;-86
2023/05/21 10:03:42;;;;;;;81.60;14.03;;;21.50;2.50;;;;;;4806851;29;20607;-87
2023/05/21 10:06:28;;;;;;;76.80;13.30;;;21.30;1.00;;;;;;4862295;29;20450;-86
2023/05/21 10:09:06;;;;;;;82.70;14.77;;;21.20;1.00;;;;;;4860478;29;20446;-87
2023/05/21 10:12:22;;;;;;;;;;;;;;;;;;;;;
2023/05/21 10:21:54;;;;;;;79.80;17.00;;;21.50;1.00;;;;;;4801629;29;20417;-87
2023/05/21 10:24:24;;;;;;;79.60;16.50;;;21.80;1.00;;;;;;4803603;29;20830;-87
2023/05/21 10:30:31;;;;;;;74.90;14.00;;;22.30;1.00;;;;;;4823414;29;20508;-86
2023/05/21 10:33:05;;;;;;;80.13;13.80;;;22.20;1.00;;;;;;4804306;29;20433;-86
2023/05/21 10:36:01;;;;;;;;;;;;;;;;;;;;;
2023/05/21 10:38:59;;;;;;;77.93;13.33;;;22.00;1.00;;;;;;4823830;29;20428;-87
2023/05/21 10:41:45;;;;;;;82.90;15.67;;;22.10;1.00;;;;;;4805982;29;20494;-87
2023/05/21 10:44:47;;;;;;;75.40;12.73;;;22.00;1.00;;;;;;4864641;29;20397;-86
2023/05/21 10:47:42;;;;;;;;;;;;;;;;;;;;;
2023/05/21 10:50:36;;;;;;;77.73;13.60;;;22.40;1.00;;;;;;4864119;29;20420;-86
2023/05/21 10:53:49;;;;;;;78.60;14.87;;;22.20;1.00;;;;;;4863691;29;20508;-86
2023/05/21 10:56:27;;;;;;;78.63;13.00;;;22.40;1.00;;;;;;4836620;29;20439;-87
2023/05/21 10:59:21;;;;;;;78.20;13.57;;;22.40;1.00;;;;;;4865011;29;20419;-86
2023/05/21 11:01:58;;;;;;;79.60;13.27;;;22.60;1.00;;;;;;4866061;29;20405;-86
2023/05/21 11:04:38;;;;;;;75.23;13.17;;;22.70;1.00;;;;;;4864837;29;20426;-87
2023/05/21 11:07:04;;;;;;;80.10;14.40;;;22.90;1.00;;;;;;4864181;29;20959;-86
2023/05/21 11:09:43;;;;;;;80.30;14.40;;;23.00;1.00;;;;;;4865394;29;20419;-86
2023/05/21 11:12:11;;;;;;;77.77;14.50;;;23.20;1.00;;;;;;4863474;29;20419;-86
2023/05/21 11:14:42;;;;;;;78.47;14.23;;;23.10;1.00;;;;;;4861668;29;20429;-87
2023/05/21 11:17:40;;;;;;;79.67;13.77;;;23.20;1.00;;;;;;4860671;29;20663;-86
2023/05/21 11:20:22;;;;;;;76.80;14.03;;;23.40;1.00;;;;;;4861805;29;20400;-88
2023/05/21 11:22:48;;;;;;;77.17;14.10;;;23.50;1.00;;;;;;4861826;29;20408;-86
2023/05/21 11:25:23;;;;;;;93.47;23.70;;;23.80;1.00;;;;;;4862395;29;20932;-86
2023/05/21 11:27:49;;;;;;;79.87;15.03;;;23.80;1.00;;;;;;4863728;29;20762;-87
2023/05/21 11:30:16;;;;;;;95.30;22.17;;;24.00;1.00;;;;;;4861740;29;20548;-88
2023/05/21 11:33:08;;;;;;;82.07;15.27;;;24.10;1.00;;;;;;4862534;29;20207;-87
2023/05/21 11:35:50;;;;;;;79.03;14.10;;;24.20;1.00;;;;;;4862549;29;20409;-87
2023/05/21 11:38:17;;;;;;;79.07;15.30;;;24.00;1.00;;;;;;4862543;29;20892;-86
2023/05/21 11:40:53;;;;;;;74.40;12.17;;;23.70;1.00;;;;;;4866652;29;20400;-85
2023/05/21 11:43:19;;;;;;;78.57;14.70;;;23.60;1.00;;;;;;4866777;29;20451;-86
2023/05/21 11:45:51;;;;;;;77.17;14.60;;;23.90;1.00;;;;;;4879927;29;20412;-86
2023/05/21 11:48:18;;;;;;;76.33;13.60;;;24.00;1.00;;;;;;4864600;29;20195;-86
2023/05/21 11:50:44;;;;;;;75.80;14.23;;;24.10;1.00;;;;;;4867297;29;20431;-86
2023/05/21 11:53:14;;;;;;;79.40;15.07;;;24.30;1.00;;;;;;4867183;29;20447;-89
2023/05/21 11:55:46;;;;;;;77.87;14.20;;;24.10;1.00;;;;;;4864457;29;20412;-86
2023/05/21 11:58:13;;;;;;;80.83;15.27;;;24.10;1.00;;;;;;4863180;29;20389;-86
2023/05/21 12:00:39;;;;;;;77.73;16.90;;;24.40;1.00;;;;;;4861750;29;20392;-87
2023/05/21 12:03:11;;;;;;;80.20;17.20;;;24.60;1.00;;;;;;4861111;29;20412;-89
2023/05/21 12:05:52;;;;;;;78.70;17.17;;;24.80;1.00;;;;;;4860508;29;20769;-90
2023/05/21 12:08:31;;;;;;;78.80;19.30;;;24.80;1.00;;;;;;4861543;29;20412;-88
2023/05/21 12:11:06;;;;;;;78.80;18.27;;;25.00;1.00;;;;;;4861955;29;20753;-88
2023/05/21 12:13:32;;;;;;;78.50;17.10;;;25.00;1.00;;;;;;4869737;29;20800;-86
2023/05/21 12:15:58;;;;;;;80.97;17.60;;;24.70;1.00;;;;;;4872951;29;20441;-86
2023/05/21 12:18:25;;;;;;;79.70;18.90;;;24.80;1.00;;;;;;4873188;29;20250;-86
2023/05/21 12:20:51;;;;;;;78.23;17.93;;;24.90;1.00;;;;;;4872415;29;20168;-86
2023/05/21 12:23:23;;;;;;;77.40;18.53;;;25.00;1.00;;;;;;4871040;29;20750;-85
2023/05/21 12:25:49;;;;;;;84.17;19.00;;;25.20;1.00;;;;;;4868824;29;20204;-86
2023/05/21 12:28:15;;;;;;;78.63;17.10;;;25.30;1.00;;;;;;4872122;29;20398;-86
2023/05/21 12:30:41;;;;;;;78.60;18.20;;;25.30;1.00;;;;;;4872068;29;20460;-86
2023/05/21 12:33:07;;;;;;;77.47;17.73;;;25.30;1.00;;;;;;4872628;29;20225;-86
2023/05/21 12:35:32;;;;;;;79.73;16.77;;;25.30;1.00;;;;;;4872351;29;20547;-86
2023/05/21 12:38:02;;;;;;;77.87;18.00;;;25.30;1.00;;;;;;4872559;29;20186;-86
2023/05/21 12:40:37;;;;;;;80.30;19.47;;;25.00;1.00;;;;;;4872058;29;20178;-86
2023/05/21 12:43:04;;;;;;;82.23;21.13;;;24.80;1.00;;;;;;4872785;29;20417;-86
2023/05/21 12:45:31;;;;;;;80.07;20.90;;;24.70;1.00;;;;;;4873174;29;20449;-86
2023/05/21 12:48:00;;;;;;;83.63;19.77;;;24.60;1.00;;;;;;4872280;29;20456;-86
2023/05/21 12:50:25;;;;;;;79.60;19.47;;;24.80;1.00;;;;;;4873673;29;20882;-86
2023/05/21 12:52:56;;;;;;;78.07;18.00;;;24.80;1.00;;;;;;4873791;29;20501;-86
2023/05/21 12:55:26;;;;;;;78.47;19.50;;;24.80;1.00;;;;;;4870590;29;20217;-86
2023/05/21 12:58:07;;;;;;;83.93;23.17;;;24.80;1.00;;;;;;4872477;29;20417;-87
2023/05/21 13:00:33;;;;;;;81.30;19.10;;;24.70;1.00;;;;;;4871630;29;20413;-86
2023/05/21 13:03:00;;;;;;;80.50;19.60;;;24.80;1.00;;;;;;4865919;29;20417;-89
2023/05/21 13:05:59;;;;;;;77.40;20.70;;;24.50;1.00;;;;;;4862343;29;20449;-90
2023/05/21 13:08:25;;;;;;;80.00;19.70;;;24.50;1.00;;;;;;4863937;29;20420;-88
2023/05/21 13:10:51;;;;;;;79.10;19.30;;;24.60;1.00;;;;;;4862284;29;20432;-89
2023/05/21 13:13:19;;;;;;;79.90;19.60;;;24.60;1.00;;;;;;4863207;29;20449;-88
2023/05/21 13:15:45;;;;;;;79.10;17.77;;;24.70;1.00;;;;;;4863877;29;20263;-89
2023/05/21 13:18:11;;;;;;;79.30;17.83;;;24.80;1.00;;;;;;4862637;29;20503;-88
2023/05/21 13:20:37;;;;;;;80.83;15.60;;;24.90;1.00;;;;;;4864018;29;20420;-89
2023/05/21 13:23:06;;;;;;;76.80;16.07;;;25.00;1.00;;;;;;4862269;29;20272;-90
2023/05/21 13:25:35;;;;;;;78.13;19.00;;;25.10;1.00;;;;;;4876736;29;20449;-89
2023/05/21 13:28:07;;;;;;;77.83;16.07;;;25.20;1.00;;;;;;4861934;29;20426;-89
2023/05/21 13:30:33;;;;;;;75.57;13.77;;;25.50;1.00;;;;;;4862357;29;20428;-89
2023/05/21 13:33:11;;;;;;;76.13;13.60;;;25.40;1.00;;;;;;4863168;29;20450;-88
2023/05/21 13:35:37;;;;;;;76.60;13.70;;;25.40;1.00;;;;;;4862495;29;20440;-88
2023/05/21 13:38:06;;;;;;;76.67;12.27;;;25.80;1.00;;;;;;4864595;29;20422;-89
2023/05/21 13:40:32;;;;;;;81.10;12.40;;;25.80;1.00;;;;;;4864344;29;20184;-88
2023/05/21 13:43:00;;;;;;;79.20;13.17;;;25.80;1.00;;;;;;4863580;29;20426;-89
2023/05/21 13:45:28;;;;;;;76.60;12.87;;;26.00;1.00;;;;;;4864348;29;20182;-87
2023/05/21 13:48:00;;;;;;;75.17;12.23;;;26.10;1.00;;;;;;4862024;29;20514;-87
2023/05/21 13:50:26;;;;;;;77.00;13.33;;;26.30;1.00;;;;;;4863295;29;20506;-88
2023/05/21 13:52:54;;;;;;;76.80;13.13;;;26.40;1.00;;;;;;4877467;29;20543;-87
2023/05/21 13:55:21;;;;;;;76.90;13.40;;;26.60;1.00;;;;;;4861510;29;20198;-87
2023/05/21 13:57:47;;;;;;;76.23;11.43;;;26.80;1.00;;;;;;4862983;29;20962;-87
2023/05/21 14:00:14;;;;;;;74.47;12.70;;;26.90;1.00;;;;;;4861549;29;20448;-86
2023/05/21 14:02:42;;;;;;;78.07;19.53;;;26.90;1.00;;;;;;4863108;29;20171;-87
2023/05/21 14:05:11;;;;;;;78.13;13.83;;;26.90;1.00;;;;;;4863137;29;20415;-86
2023/05/21 14:07:38;;;;;;;76.57;12.27;;;26.80;1.00;;;;;;4877506;29;20538;-87
2023/05/21 14:10:05;;;;;;;76.33;12.30;;;26.90;1.00;;;;;;4862190;29;20423;-86
2023/05/21 14:12:32;;;;;;;80.90;15.43;;;26.90;1.00;;;;;;4864504;29;20447;-86
2023/05/21 14:15:00;;;;;;;79.50;14.27;;;26.90;1.00;;;;;;4863410;29;20416;-88
2023/05/21 14:17:26;;;;;;;79.67;14.90;;;27.00;1.00;;;;;;4861505;29;20531;-86
2023/05/21 14:19:52;;;;;;;76.60;14.20;;;27.20;1.00;;;;;;4864298;29;20448;-86
2023/05/21 14:22:17;;;;;;;78.13;13.50;;;27.30;1.00;;;;;;4864000;29;20178;-87
2023/05/21 14:24:43;;;;;;;76.70;14.53;;;27.40;1.00;;;;;;4863346;29;20579;-86
2023/05/21 14:27:09;;;;;;;77.70;14.70;;;27.40;1.00;;;;;;4864372;29;20199;-87
2023/05/21 14:29:37;;;;;;;77.47;14.53;;;27.50;1.00;;;;;;4865990;29;20236;-87
2023/05/21 14:32:03;;;;;;;78.07;16.50;;;27.50;1.00;;;;;;4864665;29;20307;-87
2023/05/21 14:34:29;;;;;;;153.80;56.27;;;27.40;1.00;;;;;;4864499;29;20459;-87
2023/05/21 14:36:55;;;;;;;88.90;21.70;;;27.30;1.00;;;;;;4862858;29;20535;-87
2023/05/21 14:39:21;;;;;;;81.20;18.40;;;27.20;1.00;;;;;;4864545;29;20636;-87
2023/05/21 14:41:46;;;;;;;77.50;16.73;;;27.30;1.00;;;;;;4864148;29;20172;-87
2023/05/21 14:44:12;;;;;;;77.87;17.10;;;27.30;1.00;;;;;;4868064;29;20179;-87
2023/05/21 14:46:38;;;;;;;78.87;16.67;;;27.40;1.00;;;;;;4865747;29;20203;-86
2023/05/21 14:49:03;;;;;;;78.40;16.33;;;27.30;1.00;;;;;;4863670;29;20226;-86
2023/05/21 14:51:30;;;;;;;77.17;15.63;;;27.30;1.00;;;;;;4861750;29;20270;-86
2023/05/21 14:53:56;;;;;;;80.83;16.43;;;27.40;1.00;;;;;;4862045;29;20275;-86
2023/05/21 14:56:25;;;;;;;84.80;21.73;;;27.40;1.00;;;;;;4861437;29;20455;-86
2023/05/21 14:58:51;;;;;;;136.70;56.37;;;27.30;1.00;;;;;;4861161;29;20423;-86
2023/05/21 15:01:20;;;;;;;98.07;32.87;;;27.40;1.00;;;;;;4861424;29;20498;-87
2023/05/21 15:04:25;;;;;;;94.10;30.27;;;27.60;1.00;;;;;;4861480;29;20456;-87
2023/05/21 15:06:53;;;;;;;89.70;25.47;;;27.70;1.00;;;;;;4866031;29;20444;-85
2023/05/21 15:09:19;;;;;;;89.10;23.93;;;28.00;1.00;;;;;;4866182;29;20439;-85
2023/05/21 15:11:56;;;;;;;82.00;18.00;;;27.90;1.00;;;;;;4866110;29;20955;-86
2023/05/21 15:14:22;;;;;;;100.27;31.70;;;27.90;1.00;;;;;;4867850;29;20160;-86
2023/05/21 15:16:50;;;;;;;89.30;24.07;;;28.00;1.00;;;;;;4868484;29;20432;-86
2023/05/21 15:19:16;;;;;;;90.90;28.07;;;28.10;1.00;;;;;;4867539;29;20183;-86
2023/05/21 15:21:41;;;;;;;83.27;20.97;;;28.20;1.00;;;;;;4868281;29;20404;-85
2023/05/21 15:24:07;;;;;;;78.00;17.37;;;28.40;1.00;;;;;;4865270;29;20350;-86
2023/05/21 15:26:33;;;;;;;78.90;20.27;;;28.40;1.00;;;;;;4866221;29;20207;-86
2023/05/21 15:28:59;;;;;;;79.40;19.20;;;28.50;1.00;;;;;;4866046;29;20251;-85
2023/05/21 15:31:24;;;;;;;79.20;20.27;;;28.50;1.00;;;;;;4866968;29;20182;-86
2023/05/21 15:33:50;;;;;;;77.47;19.67;;;28.70;1.00;;;;;;4869653;29;20215;-86
2023/05/21 15:36:16;;;;;;;78.90;19.77;;;28.50;1.00;;;;;;4940790;23;20357;-82
2023/05/21 15:38:42;;;;;;;78.77;18.90;;;28.70;1.00;;;;;;4883129;29;20175;-83
2023/05/21 15:41:07;;;;;;;80.07;20.27;;;28.70;1.00;;;;;;4882930;29;20495;-82
2023/05/21 15:43:34;;;;;;;81.50;19.57;;;28.90;1.00;;;;;;4882188;29;20179;-82
2023/05/21 15:45:59;;;;;;;81.27;19.17;;;28.80;1.00;;;;;;4882418;29;20210;-81
2023/05/21 15:48:25;;;;;;;78.20;20.70;;;28.90;1.00;;;;;;4884427;29;20407;-82
2023/05/21 15:50:51;;;;;;;86.80;24.70;;;29.00;1.00;;;;;;4886825;29;20275;-82
2023/05/21 15:53:16;;;;;;;79.67;20.53;;;29.10;1.00;;;;;;4887783;29;20199;-82
2023/05/21 15:55:43;;;;;;;80.83;21.90;;;29.20;1.00;;;;;;4886595;29;20169;-82
2023/05/21 15:58:09;;;;;;;81.00;22.40;;;29.30;1.00;;;;;;4884568;29;20179;-82
2023/05/21 16:00:34;;;;;;;81.90;21.70;;;29.40;1.00;;;;;;4887801;29;20409;-83
2023/05/21 16:03:00;;;;;;;82.00;23.10;;;29.70;1.00;;;;;;4888196;29;20182;-83
2023/05/21 16:05:26;;;;;;;79.37;21.17;;;29.90;1.00;;;;;;4886054;29;20606;-82
2023/05/21 16:07:52;;;;;;;81.53;22.37;;;30.30;1.00;;;;;;4886565;29;20498;-83
2023/05/21 16:10:18;;;;;;;82.30;22.10;;;30.40;1.00;;;;;;4887690;29;20238;-83
2023/05/21 16:12:43;;;;;;;80.07;19.10;;;30.20;1.00;;;;;;4886461;29;20241;-82
2023/05/21 16:15:09;;;;;;;81.80;21.43;;;30.10;1.00;;;;;;4885156;29;20167;-82
2023/05/21 16:17:35;;;;;;;79.57;17.63;;;30.30;1.00;;;;;;4886359;29;20219;-83
2023/05/21 16:20:04;;;;;;;81.40;17.90;;;30.60;1.00;;;;;;4886877;29;20749;-82
2023/05/21 16:22:30;;;;;;;78.50;16.30;;;30.60;1.00;;;;;;4885147;29;20174;-83
2023/05/21 16:25:08;;;;;;;80.47;15.33;;;30.50;1.00;;;;;;4886572;29;20418;-83
2023/05/21 16:27:35;;;;;;;79.83;15.50;;;30.00;1.00;;;;;;4886951;29;20205;-83
2023/05/21 16:30:00;;;;;;;78.33;16.10;;;29.40;1.00;;;;;;4885097;29;20427;-82
2023/05/21 16:32:27;;;;;;;83.37;18.67;;;28.70;1.00;;;;;;4884003;29;20487;-83
2023/05/21 16:34:53;;;;;;;79.57;18.87;;;28.60;1.00;;;;;;4886122;29;20167;-82
2023/05/21 16:37:18;;;;;;;82.00;20.50;;;28.80;1.00;;;;;;4888277;29;20498;-84
2023/05/21 16:39:44;;;;;;;80.43;17.20;;;29.50;1.00;;;;;;4886636;29;20177;-84
2023/05/21 16:42:10;;;;;;;81.50;17.70;;;30.00;1.00;;;;;;4884514;29;20175;-84
2023/05/21 16:44:36;;;;;;;78.27;16.00;;;30.30;1.00;;;;;;4885096;29;20992;-83
2023/05/21 16:47:03;;;;;;;101.43;55.45;;;30.20;1.00;;;;;;4885672;29;20438;-83
2023/05/21 16:49:34;;;;;;;79.27;17.13;;;30.20;1.00;;;;;;4887406;29;20171;-82
2023/05/21 16:52:00;;;;;;;78.83;16.97;;;29.60;1.00;;;;;;4891636;29;20422;-81
2023/05/21 16:54:26;;;;;;;79.27;19.67;;;29.00;1.00;;;;;;4893004;29;20424;-81
2023/05/21 16:56:53;;;;;;;82.53;20.17;;;28.30;1.00;;;;;;4895071;29;20431;-82
2023/05/21 16:59:19;;;;;;;84.00;22.17;;;27.70;1.00;;;;;;4893399;29;20175;-81
2023/05/21 17:01:44;;;;;;;80.97;20.80;;;26.90;1.00;;;;;;4893530;29;20471;-81
2023/05/21 17:04:10;;;;;;;80.23;19.30;;;26.60;1.00;;;;;;4893357;29;20173;-81
2023/05/21 17:06:36;;;;;;;79.67;15.67;;;26.30;1.00;;;;;;4893025;29;20227;-81
2023/05/21 17:09:01;;;;;;;77.07;14.13;;;26.00;1.00;;;;;;4890840;29;20171;-81
2023/05/21 17:11:27;;;;;;;78.03;13.90;;;25.60;1.00;;;;;;4889804;29;20187;-81
2023/05/21 17:13:55;;;;;;;77.90;13.90;;;25.50;1.00;;;;;;4890341;29;20230;-81
2023/05/21 17:16:21;;;;;;;80.27;19.30;;;25.60;1.00;;;;;;4892077;29;20190;-81
2023/05/21 17:18:47;;;;;;;83.70;24.20;;;25.60;1.00;;;;;;4891438;29;20419;-81
2023/05/21 17:21:13;;;;;;;81.37;24.80;;;25.20;1.00;;;;;;4889299;29;20446;-81
2023/05/21 17:23:38;;;;;;;86.90;36.23;;;24.90;1.00;;;;;;4891838;29;20175;-81
2023/05/21 17:26:05;;;;;;;88.77;41.67;;;24.60;4.20;;;;;;4889808;29;20569;-81
2023/05/21 17:28:31;;;;;;;84.50;32.27;;;24.30;32.80;;;;;;4893099;29;20225;-81
2023/05/21 17:30:58;;;;;;;82.57;26.37;;;24.10;39.40;;;;;;4891976;29;20458;-81
2023/05/21 17:33:24;;;;;;;80.80;22.27;;;24.10;37.10;;;;;;4889524;29;20470;-81
2023/05/21 17:35:49;;;;;;;79.60;16.63;;;24.10;49.90;;;;;;4892854;29;20261;-81